Weather Data

Pearl Creek Farm: 8878 N Farm Road 75, Walnut Grove MO 65770

<== Previous Day (Thursday 24 Sep 2015) | Next Day (Saturday 26 Sep 2015) ==>

Summary Precipitation Data For Friday 25 September 2015

ElementValueUnits
Precipitation0"
Notes(none)
SourcePearl Creek Farm

Summary Temperature Data For Friday 25 September 2015

ElementValueUnits
High Temperature80 oF
Low Temperature59 oF
Average Temperature68 oF
High Humidity92 %
Low Humidity55 %
Average Humidity80 %
SourcePearl Creek Farm

Detail Temperature Data For Friday 25 September 2015

Date / TimeTemp (F)RH (%)Dew Pt (F)Report Date / TimeSource
2015-09-25 00:00:00 64 87 59.9 2015-11-18 13:17:03 Pearl Creek Farm
2015-09-25 00:30:00 63 87 58.9 2015-11-18 13:17:03 Pearl Creek Farm
2015-09-25 01:00:00 63 87 59.1 2015-11-18 13:17:03 Pearl Creek Farm
2015-09-25 01:30:00 63 87 59.1 2015-11-18 13:17:03 Pearl Creek Farm
2015-09-25 02:00:00 62 88 58.2 2015-11-18 13:17:03 Pearl Creek Farm
2015-09-25 02:30:00 61 87 57.1 2015-11-18 13:17:03 Pearl Creek Farm
2015-09-25 03:00:00 61 87 57.1 2015-11-18 13:17:03 Pearl Creek Farm
2015-09-25 03:30:00 61 88 57.3 2015-11-18 13:17:03 Pearl Creek Farm
2015-09-25 04:00:00 61 89 57.7 2015-11-18 13:17:03 Pearl Creek Farm
2015-09-25 04:30:00 61 88 57.4 2015-11-18 13:17:03 Pearl Creek Farm
2015-09-25 05:00:00 60 88 56.4 2015-11-18 13:17:03 Pearl Creek Farm
2015-09-25 05:30:00 60 88 56.4 2015-11-18 13:17:03 Pearl Creek Farm
2015-09-25 06:00:00 60 88 56.4 2015-11-18 13:17:03 Pearl Creek Farm
2015-09-25 06:30:00 59 89 55.6 2015-11-18 13:17:03 Pearl Creek Farm
2015-09-25 07:00:00 59 89 55.8 2015-11-18 13:17:03 Pearl Creek Farm
2015-09-25 07:30:00 59 90 55.9 2015-11-18 13:17:03 Pearl Creek Farm
2015-09-25 08:00:00 60 90 56.9 2015-11-18 13:17:03 Pearl Creek Farm
2015-09-25 08:30:00 61 92 58.5 2015-11-18 13:17:03 Pearl Creek Farm
2015-09-25 09:00:00 64 91 61.3 2015-11-18 13:17:03 Pearl Creek Farm
2015-09-25 09:30:00 66 91 63.1 2015-11-18 13:17:03 Pearl Creek Farm
2015-09-25 10:00:00 67 89 63.7 2015-11-18 13:17:03 Pearl Creek Farm
2015-09-25 10:30:00 68 89 64.5 2015-11-18 13:17:03 Pearl Creek Farm
2015-09-25 11:00:00 70 87 66.0 2015-11-18 13:17:03 Pearl Creek Farm
2015-09-25 11:30:00 71 84 65.7 2015-11-18 13:17:03 Pearl Creek Farm
2015-09-25 12:00:00 72 78 64.8 2015-11-18 13:17:03 Pearl Creek Farm
2015-09-25 12:30:00 74 77 66.1 2015-11-18 13:17:03 Pearl Creek Farm
2015-09-25 13:00:00 75 73 65.6 2015-11-18 13:17:03 Pearl Creek Farm
2015-09-25 13:30:00 77 69 65.8 2015-11-18 13:17:03 Pearl Creek Farm
2015-09-25 14:00:00 79 63 65.3 2015-11-18 13:17:03 Pearl Creek Farm
2015-09-25 14:30:00 79 62 64.6 2015-11-18 13:17:03 Pearl Creek Farm
2015-09-25 15:00:00 79 62 64.9 2015-11-18 13:17:03 Pearl Creek Farm
2015-09-25 15:30:00 80 59 64.4 2015-11-18 13:17:03 Pearl Creek Farm
2015-09-25 16:00:00 80 58 63.9 2015-11-18 13:17:03 Pearl Creek Farm
2015-09-25 16:30:00 79 55 61.2 2015-11-18 13:17:03 Pearl Creek Farm
2015-09-25 17:00:00 79 55 61.5 2015-11-18 13:17:03 Pearl Creek Farm
2015-09-25 17:30:00 77 61 62.3 2015-11-18 13:17:03 Pearl Creek Farm
2015-09-25 18:00:00 76 65 63.2 2015-11-18 13:17:03 Pearl Creek Farm
2015-09-25 18:30:00 75 70 64.3 2015-11-18 13:17:03 Pearl Creek Farm
2015-09-25 19:00:00 74 73 64.8 2015-11-18 13:17:03 Pearl Creek Farm
2015-09-25 19:30:00 72 75 63.5 2015-11-18 13:17:03 Pearl Creek Farm
2015-09-25 20:00:00 69 76 60.9 2015-11-18 13:17:03 Pearl Creek Farm
2015-09-25 20:30:00 67 79 60.1 2015-11-18 13:17:03 Pearl Creek Farm
2015-09-25 21:00:00 66 82 60.3 2015-11-18 13:17:03 Pearl Creek Farm
2015-09-25 21:30:00 65 83 59.5 2015-11-18 13:17:03 Pearl Creek Farm
2015-09-25 22:00:00 64 84 58.9 2015-11-18 13:17:03 Pearl Creek Farm
2015-09-25 22:30:00 64 84 59.1 2015-11-18 13:17:03 Pearl Creek Farm
2015-09-25 23:00:00 63 85 58.4 2015-11-18 13:17:03 Pearl Creek Farm
2015-09-25 23:30:00 63 85 58.4 2015-11-18 13:17:03 Pearl Creek Farm

A total of 48 rows are displayed.